createdAt,value
2022-08-03T00:01:15.974Z,100598.72
2022-08-03T00:03:42.175Z,100609.19
2022-08-03T00:06:08.358Z,100604.72
2022-08-03T00:08:40.208Z,100598.69
2022-08-03T00:11:06.653Z,100609.41
2022-08-03T00:13:32.807Z,100604.50
2022-08-03T00:15:58.995Z,100597.41
2022-08-03T00:18:25.188Z,100604.97
2022-08-03T00:20:51.351Z,100608.44
2022-08-03T00:23:17.552Z,100605.56
2022-08-03T00:25:43.724Z,100605.22
2022-08-03T00:28:10.111Z,100602.44
2022-08-03T00:30:36.293Z,100599.44
2022-08-03T00:33:02.514Z,100590.53
2022-08-03T00:35:37.044Z,100598.09
2022-08-03T00:38:15.214Z,100591.03
2022-08-03T00:40:41.577Z,100589.81
2022-08-03T00:43:07.866Z,100588.16
2022-08-03T00:45:34.047Z,100589.31
2022-08-03T00:48:00.226Z,100584.53
2022-08-03T00:50:26.377Z,100583.91
2022-08-03T00:52:52.714Z,100589.19
2022-08-03T00:55:18.873Z,100589.09
2022-08-03T00:57:45.057Z,100591.97
2022-08-03T01:00:11.237Z,100585.22
2022-08-03T01:02:37.413Z,100586.91
2022-08-03T01:05:03.704Z,100592.56
2022-08-03T01:07:29.883Z,100591.81
2022-08-03T01:09:56.139Z,100588.31
2022-08-03T01:12:22.301Z,100588.19
2022-08-03T01:14:48.463Z,100584.81
2022-08-03T01:17:14.757Z,100578.94
2022-08-03T01:19:40.961Z,100583.13
2022-08-03T01:22:07.152Z,100583.97
2022-08-03T01:24:33.294Z,100584.81
2022-08-03T01:26:59.590Z,100581.44
2022-08-03T01:29:29.602Z,100577.47
2022-08-03T01:32:54.592Z,100574.59
2022-08-03T01:34:41.943Z,100569.94
2022-08-03T01:37:08.095Z,100573.41
2022-08-03T01:39:34.259Z,100572.09
2022-08-03T01:42:00.467Z,100571.22
2022-08-03T01:44:30.116Z,100568.22
2022-08-03T01:46:57.005Z,100567.88
2022-08-03T01:49:23.233Z,100570.38
2022-08-03T01:52:02.883Z,100568.91
2022-08-03T01:54:31.299Z,100574.41
2022-08-03T01:56:57.473Z,100570.66
2022-08-03T01:59:23.611Z,100572.91
2022-08-03T02:02:28.997Z,100569.66
2022-08-03T02:04:35.946Z,100571.56
2022-08-03T02:07:03.382Z,100567.50
2022-08-03T02:09:29.727Z,100566.66
2022-08-03T02:11:55.960Z,100559.44
2022-08-03T02:14:22.126Z,100571.41
2022-08-03T02:16:48.276Z,100565.31
2022-08-03T02:19:14.433Z,100566.13
2022-08-03T02:21:56.559Z,100568.78
2022-08-03T02:24:26.753Z,100572.28
2022-08-03T02:26:52.939Z,100572.94
2022-08-03T02:29:19.187Z,100569.41
2022-08-03T02:31:45.348Z,100573.00
2022-08-03T02:34:11.561Z,100572.94
2022-08-03T02:36:37.710Z,100574.84
2022-08-03T02:39:03.869Z,100576.94
2022-08-03T02:41:30.046Z,100574.19
2022-08-03T02:44:05.522Z,100570.72
2022-08-03T02:46:33.439Z,100571.22
2022-08-03T02:48:59.655Z,100567.22
2022-08-03T02:51:45.756Z,100562.41
2022-08-03T02:54:11.977Z,100567.91
2022-08-03T02:56:38.131Z,100569.91
2022-08-03T02:59:04.290Z,100565.88
2022-08-03T03:01:30.558Z,100565.56
2022-08-03T03:03:56.853Z,100562.81
2022-08-03T03:06:23.035Z,100560.31
2022-08-03T03:08:51.058Z,100565.72
2022-08-03T03:11:17.216Z,100566.69
2022-08-03T03:13:43.384Z,100564.91
2022-08-03T03:16:09.655Z,100565.44
2022-08-03T03:18:35.877Z,100563.03
2022-08-03T03:21:02.043Z,100566.13
2022-08-03T03:23:28.311Z,100564.69
2022-08-03T03:25:54.480Z,100554.16
2022-08-03T03:28:20.626Z,100565.16
2022-08-03T03:30:52.786Z,100554.94
2022-08-03T03:33:19.567Z,100556.63
2022-08-03T03:35:45.788Z,100562.00
2022-08-03T03:38:11.948Z,100561.25
2022-08-03T03:40:38.118Z,100561.22
2022-08-03T03:43:04.273Z,100560.81
2022-08-03T03:45:30.483Z,100561.31
2022-08-03T03:47:56.668Z,100566.41
2022-08-03T03:50:22.836Z,100565.78
2022-08-03T03:52:48.992Z,100570.19
2022-08-03T03:55:15.170Z,100563.66
2022-08-03T03:57:41.321Z,100574.53
2022-08-03T04:00:07.488Z,100566.09
2022-08-03T04:02:33.633Z,100560.00
2022-08-03T04:04:59.799Z,100558.28
2022-08-03T04:07:26.009Z,100563.88
2022-08-03T04:09:52.246Z,100563.03
2022-08-03T04:12:18.417Z,100564.84
2022-08-03T04:14:44.681Z,100563.78
2022-08-03T04:17:10.863Z,100571.56
2022-08-03T04:19:37.040Z,100566.53
2022-08-03T04:22:04.149Z,100571.13
2022-08-03T04:24:30.312Z,100569.69
2022-08-03T04:26:56.450Z,100562.50
2022-08-03T04:29:22.621Z,100575.97
2022-08-03T04:31:48.834Z,100575.88
2022-08-03T04:34:14.974Z,100574.38
2022-08-03T04:36:41.359Z,100570.03
2022-08-03T04:39:07.518Z,100577.03
2022-08-03T04:42:02.219Z,100579.94
2022-08-03T04:44:32.214Z,100581.22
2022-08-03T04:46:58.387Z,100589.75
2022-08-03T04:49:24.621Z,100592.81
2022-08-03T04:52:02.916Z,100586.06
2022-08-03T04:54:29.090Z,100582.69
2022-08-03T04:56:58.319Z,100587.34
2022-08-03T04:59:24.493Z,100592.38
2022-08-03T05:01:50.690Z,100584.13
2022-08-03T05:04:20.075Z,100593.41
2022-08-03T05:06:48.018Z,100589.00
2022-08-03T05:09:39.596Z,100598.03
2022-08-03T05:12:04.891Z,100593.78
2022-08-03T05:14:31.083Z,100592.19
2022-08-03T05:16:57.240Z,100595.00
2022-08-03T05:19:23.414Z,100594.94
2022-08-03T05:21:52.469Z,100598.13
2022-08-03T05:24:19.247Z,100602.41
2022-08-03T05:26:45.433Z,100596.78
2022-08-03T05:29:11.594Z,100606.19
2022-08-03T05:31:37.775Z,100603.38
2022-08-03T05:34:03.937Z,100601.97
2022-08-03T05:36:30.089Z,100605.56
2022-08-03T05:39:00.831Z,100602.44
2022-08-03T05:41:37.174Z,100607.25
2022-08-03T05:44:03.774Z,100611.94
2022-08-03T05:46:29.944Z,100605.50
2022-08-03T05:48:56.143Z,100608.41
2022-08-03T05:51:22.413Z,100606.72
2022-08-03T05:53:48.583Z,100607.50
2022-08-03T05:56:16.280Z,100602.78
2022-08-03T05:58:42.917Z,100599.72
2022-08-03T06:01:09.154Z,100602.31
2022-08-03T06:03:35.382Z,100608.38
2022-08-03T06:06:01.586Z,100601.13
2022-08-03T06:08:27.786Z,100604.03
2022-08-03T06:10:53.952Z,100603.16
2022-08-03T06:13:20.138Z,100602.50
2022-08-03T06:15:46.289Z,100599.19
2022-08-03T06:18:12.434Z,100598.00
2022-08-03T06:20:38.614Z,100597.56
2022-08-03T06:23:06.207Z,100597.00
2022-08-03T06:25:33.860Z,100606.22
2022-08-03T06:28:00.010Z,100601.09
2022-08-03T06:30:26.241Z,100598.84
2022-08-03T06:32:52.655Z,100599.84
2022-08-03T06:35:18.897Z,100598.03
2022-08-03T06:37:45.071Z,100588.47
2022-08-03T06:40:11.245Z,100600.75
2022-08-03T06:42:40.190Z,100596.69
2022-08-03T06:45:06.367Z,100591.94
2022-08-03T06:47:32.553Z,100597.44
2022-08-03T06:50:16.207Z,100591.50
2022-08-03T06:52:43.644Z,100596.16
2022-08-03T06:55:09.803Z,100593.84
2022-08-03T06:57:35.972Z,100591.84
2022-08-03T07:00:09.958Z,100596.56
2022-08-03T07:02:37.889Z,100602.94
2022-08-03T07:05:04.063Z,100600.09
2022-08-03T07:07:30.236Z,100601.41
2022-08-03T07:09:58.060Z,100596.69
2022-08-03T07:12:24.520Z,100598.69
2022-08-03T07:14:50.709Z,100601.03
2022-08-03T07:17:16.881Z,100600.56
2022-08-03T07:19:43.042Z,100599.38
2022-08-03T07:22:09.254Z,100602.69
2022-08-03T07:24:35.448Z,100591.34
2022-08-03T07:27:01.606Z,100595.72
2022-08-03T07:29:27.804Z,100594.03
2022-08-03T07:31:53.996Z,100597.38
2022-08-03T07:34:21.289Z,100600.72
2022-08-03T07:36:47.465Z,100603.22
2022-08-03T07:39:17.556Z,100601.41
2022-08-03T07:41:44.330Z,100600.88
2022-08-03T07:44:10.499Z,100594.38
2022-08-03T07:46:36.689Z,100592.50
2022-08-03T07:49:02.882Z,100587.84
2022-08-03T07:51:29.076Z,100591.25
2022-08-03T07:53:55.260Z,100577.97
2022-08-03T07:56:21.450Z,100582.50
2022-08-03T07:58:47.652Z,100582.22
2022-08-03T08:01:15.139Z,100588.63
2022-08-03T08:03:53.282Z,100590.16
2022-08-03T08:06:19.865Z,100582.31
2022-08-03T08:08:46.285Z,100583.81
2022-08-03T08:11:12.447Z,100578.28
2022-08-03T08:13:38.611Z,100575.25
2022-08-03T08:16:04.818Z,100580.63
2022-08-03T08:18:30.989Z,100577.50
2022-08-03T08:20:57.210Z,100571.91
2022-08-03T08:23:37.854Z,100577.16
2022-08-03T08:26:09.234Z,100568.81
2022-08-03T08:28:35.390Z,100567.28
2022-08-03T08:31:01.568Z,100566.59
2022-08-03T08:33:42.164Z,100573.84
2022-08-03T08:36:15.497Z,100571.53
2022-08-03T08:38:41.915Z,100570.72
2022-08-03T08:41:08.072Z,100569.66
2022-08-03T08:43:34.269Z,100567.97
2022-08-03T08:46:00.425Z,100568.94
2022-08-03T08:48:26.638Z,100559.28
2022-08-03T08:50:52.817Z,100559.56
2022-08-03T08:53:20.728Z,100557.56
2022-08-03T08:55:58.989Z,100560.25
2022-08-03T08:58:26.610Z,100548.59
2022-08-03T09:00:53.106Z,100550.47
2022-08-03T09:03:28.906Z,100547.28
2022-08-03T09:05:56.502Z,100549.00
2022-08-03T09:08:22.786Z,100549.81
2022-08-03T09:10:48.946Z,100550.50
2022-08-03T09:13:15.154Z,100551.13
2022-08-03T09:15:41.351Z,100546.56
2022-08-03T09:18:25.236Z,100547.19
2022-08-03T09:20:56.706Z,100548.44
2022-08-03T09:24:00.556Z,100543.88
2022-08-03T09:26:09.202Z,100541.59
2022-08-03T09:29:00.465Z,100540.75
2022-08-03T09:31:21.542Z,100542.00
2022-08-03T09:33:47.728Z,100537.03
2022-08-03T09:36:14.094Z,100526.59
2022-08-03T09:38:40.307Z,100528.81
2022-08-03T09:41:06.532Z,100531.53
2022-08-03T09:43:32.693Z,100525.50
2022-08-03T09:45:58.884Z,100526.97
2022-08-03T09:48:25.054Z,100521.13
2022-08-03T09:50:56.844Z,100513.66
2022-08-03T09:53:25.015Z,100518.97
2022-08-03T09:56:34.684Z,100519.16
2022-08-03T09:58:37.362Z,100509.81
2022-08-03T10:01:03.633Z,100511.56
2022-08-03T10:03:29.847Z,100510.94
2022-08-03T10:05:59.533Z,100507.19
2022-08-03T10:08:26.272Z,100509.28
2022-08-03T10:10:52.426Z,100503.22
2022-08-03T10:13:18.626Z,100510.22
2022-08-03T10:16:23.292Z,100500.53
2022-08-03T10:18:30.959Z,100507.41
2022-08-03T10:20:57.129Z,100501.75
2022-08-03T10:23:23.319Z,100492.50
2022-08-03T10:25:49.473Z,100491.97
2022-08-03T10:28:15.639Z,100497.09
2022-08-03T10:30:41.856Z,100496.72
2022-08-03T10:33:10.909Z,100491.97
2022-08-03T10:35:54.261Z,100479.16
2022-08-03T10:38:20.441Z,100482.25
2022-08-03T10:40:49.585Z,100480.06
2022-08-03T10:43:16.571Z,100473.38
2022-08-03T10:45:42.739Z,100464.56
2022-08-03T10:48:08.915Z,100465.72
2022-08-03T10:50:35.115Z,100470.91
2022-08-03T10:53:02.061Z,100466.19
2022-08-03T10:55:39.384Z,100461.06
2022-08-03T10:58:11.095Z,100455.72
2022-08-03T11:00:37.598Z,100457.41
2022-08-03T11:03:03.858Z,100451.03
2022-08-03T11:05:30.041Z,100447.72
2022-08-03T11:07:56.210Z,100454.66
2022-08-03T11:10:22.390Z,100451.88
2022-08-03T11:12:48.595Z,100451.50
2022-08-03T11:15:14.977Z,100442.97
2022-08-03T11:17:46.746Z,100445.25
2022-08-03T11:20:22.261Z,100440.19
2022-08-03T11:22:48.470Z,100440.97
2022-08-03T11:25:53.989Z,100433.75
2022-08-03T11:28:00.982Z,100434.53
2022-08-03T11:30:27.620Z,100433.56
2022-08-03T11:32:54.298Z,100437.09
2022-08-03T11:35:20.532Z,100430.31
2022-08-03T11:38:03.435Z,100427.91
2022-08-03T11:40:31.372Z,100423.50
2022-08-03T11:42:57.547Z,100424.69
2022-08-03T11:45:23.723Z,100424.56
2022-08-03T11:47:50.238Z,100428.81
2022-08-03T11:50:17.737Z,100418.22
2022-08-03T11:52:43.891Z,100416.38
2022-08-03T11:55:10.060Z,100412.53
2022-08-03T11:59:13.165Z,100416.91
2022-08-03T12:00:25.854Z,100410.56
2022-08-03T12:02:52.335Z,100413.34
2022-08-03T12:05:18.551Z,100407.69
2022-08-03T12:08:02.713Z,100398.72
2022-08-03T12:10:30.891Z,100397.81
2022-08-03T12:12:57.102Z,100397.06
2022-08-03T12:15:23.482Z,100399.00
2022-08-03T12:17:49.688Z,100395.72
2022-08-03T12:20:15.889Z,100398.63
2022-08-03T12:22:42.047Z,100402.41
2022-08-03T12:25:08.260Z,100392.16
2022-08-03T12:27:34.453Z,100390.72
2022-08-03T12:30:00.660Z,100384.38
2022-08-03T12:32:26.845Z,100385.94
2022-08-03T12:34:53.031Z,100388.53
2022-08-03T12:37:22.720Z,100392.38
2022-08-03T12:40:02.698Z,100381.34
2022-08-03T12:42:32.896Z,100385.19
2022-08-03T12:44:59.086Z,100373.63
2022-08-03T12:47:25.409Z,100373.16
2022-08-03T12:49:51.602Z,100380.44
2022-08-03T12:52:17.793Z,100374.78
2022-08-03T12:54:46.380Z,100374.44
2022-08-03T12:57:15.656Z,100369.72
2022-08-03T12:59:53.293Z,100363.81
2022-08-03T13:02:20.171Z,100363.84
2022-08-03T13:04:52.912Z,100360.53
2022-08-03T13:07:19.514Z,100358.16
2022-08-03T13:09:46.334Z,100366.56
2022-08-03T13:12:12.507Z,100355.09
2022-08-03T13:14:38.694Z,100354.84
2022-08-03T13:17:04.869Z,100349.91
2022-08-03T13:19:31.036Z,100351.28
2022-08-03T13:22:04.042Z,100349.06
2022-08-03T13:24:31.575Z,100339.16
2022-08-03T13:26:58.069Z,100334.84
2022-08-03T13:29:24.253Z,100343.13
2022-08-03T13:31:51.258Z,100336.50
2022-08-03T13:34:20.973Z,100342.28
2022-08-03T13:39:57.707Z,100337.13
2022-08-03T13:42:21.949Z,100333.00
2022-08-03T13:44:48.207Z,100328.47
2022-08-03T13:47:14.374Z,100325.75
2022-08-03T13:49:40.561Z,100325.16
2022-08-03T13:52:06.739Z,100331.50
2022-08-03T13:54:32.943Z,100326.94
2022-08-03T13:58:01.325Z,100329.13
2022-08-03T13:59:45.306Z,100326.19
2022-08-03T14:02:11.550Z,100325.16
2022-08-03T14:04:37.738Z,100322.44
2022-08-03T14:07:03.941Z,100305.38
2022-08-03T14:09:30.077Z,100317.97
2022-08-03T14:12:08.379Z,100306.47
2022-08-03T14:14:35.041Z,100308.84
2022-08-03T14:17:01.247Z,100297.97
2022-08-03T14:19:28.620Z,100301.38
2022-08-03T14:22:06.141Z,100294.53
2022-08-03T14:24:32.900Z,100298.13
2022-08-03T14:27:08.678Z,100297.34
2022-08-03T14:29:36.244Z,100298.34
2022-08-03T14:32:09.686Z,100292.38
2022-08-03T14:34:38.552Z,100293.50
2022-08-03T14:37:04.784Z,100282.75
2022-08-03T14:39:58.174Z,100285.22
2022-08-03T14:42:17.134Z,100290.53
2022-08-03T14:44:43.323Z,100284.56
2022-08-03T14:47:09.591Z,100295.31
2022-08-03T14:50:37.373Z,100296.47
2022-08-03T14:52:21.947Z,100286.59
2022-08-03T14:54:48.191Z,100292.16
2022-08-03T14:57:14.387Z,100294.41
2022-08-03T14:59:54.096Z,100271.69
2022-08-03T15:02:23.997Z,100282.53
2022-08-03T15:04:50.459Z,100270.91
2022-08-03T15:07:16.637Z,100271.22
2022-08-03T15:09:42.838Z,100262.19
2022-08-03T15:12:08.999Z,100264.84
2022-08-03T15:14:35.159Z,100258.56
2022-08-03T15:17:04.102Z,100261.19
2022-08-03T15:20:05.565Z,100251.88
2022-08-03T15:22:16.479Z,100250.63
2022-08-03T15:24:46.744Z,100249.00
2022-08-03T15:27:12.933Z,100247.38
2022-08-03T15:30:07.777Z,100236.44
2022-08-03T15:32:25.305Z,100225.19
2022-08-03T15:34:53.271Z,100229.16
2022-08-03T15:37:19.467Z,100226.09
2022-08-03T15:39:59.307Z,100225.53
2022-08-03T15:42:26.781Z,100219.75
2022-08-03T15:44:53.611Z,100225.25
2022-08-03T15:47:21.082Z,100218.69
2022-08-03T15:49:47.516Z,100220.22
2022-08-03T15:52:16.211Z,100218.75
2022-08-03T15:54:42.407Z,100221.22
2022-08-03T15:57:08.638Z,100217.75
2022-08-03T15:59:35.784Z,100211.84
2022-08-03T16:02:02.029Z,100214.94
2022-08-03T16:04:28.401Z,100207.97
2022-08-03T16:06:54.571Z,100209.91
2022-08-03T16:09:24.358Z,100193.28
2022-08-03T16:12:06.901Z,100199.34
2022-08-03T16:14:53.453Z,100201.28
2022-08-03T16:17:20.471Z,100199.53
2022-08-03T16:19:46.922Z,100206.44
2022-08-03T16:22:14.705Z,100198.91
2022-08-03T16:24:43.023Z,100200.53
2022-08-03T16:27:17.515Z,100200.38
2022-08-03T16:29:55.444Z,100200.44
2022-08-03T16:32:21.602Z,100194.25
2022-08-03T16:34:47.771Z,100195.75
2022-08-03T16:37:36.914Z,100189.91
2022-08-03T16:40:00.176Z,100194.75
2022-08-03T16:42:26.381Z,100189.03
2022-08-03T16:44:52.548Z,100188.94
2022-08-03T16:47:22.315Z,100191.03
2022-08-03T16:49:54.298Z,100187.56
2022-08-03T16:52:21.850Z,100188.41
2022-08-03T16:54:52.698Z,100186.75
2022-08-03T16:57:58.255Z,100187.34
2022-08-03T17:00:08.140Z,100183.88
2022-08-03T17:02:36.696Z,100187.63
2022-08-03T17:05:03.843Z,100181.06
2022-08-03T17:07:30.415Z,100184.56
2022-08-03T17:09:56.694Z,100188.75
2022-08-03T17:12:26.015Z,100191.44
2022-08-03T17:14:53.519Z,100183.88
2022-08-03T17:17:19.923Z,100188.41
2022-08-03T17:19:47.459Z,100191.25
2022-08-03T17:22:15.943Z,100193.88
2022-08-03T17:24:42.428Z,100184.84
2022-08-03T17:28:41.353Z,100195.66
2022-08-03T17:29:57.273Z,100183.09
2022-08-03T17:32:42.387Z,100181.97
2022-08-03T17:35:11.916Z,100189.53
2022-08-03T17:37:58.717Z,100190.06
2022-08-03T17:40:24.566Z,100188.84
2022-08-03T17:42:54.421Z,100190.75
2022-08-03T17:45:20.678Z,100191.59
2022-08-03T17:47:57.559Z,100190.88
2022-08-03T17:50:27.981Z,100200.47
2022-08-03T17:52:54.999Z,100195.47
2022-08-03T17:55:56.103Z,100199.09
2022-08-03T17:58:07.374Z,100198.78
2022-08-03T18:00:33.643Z,100196.16
2022-08-03T18:03:03.317Z,100201.19
2022-08-03T18:06:10.493Z,100197.47
2022-08-03T18:08:16.605Z,100206.84
2022-08-03T18:13:31.874Z,100209.38
2022-08-03T18:18:50.671Z,100207.59
2022-08-03T18:21:17.566Z,100198.88
2022-08-03T18:23:43.804Z,100201.16
2022-08-03T18:26:10.744Z,100198.06
2022-08-03T18:28:38.709Z,100200.78
2022-08-03T18:31:06.084Z,100201.22
2022-08-03T18:34:20.035Z,100196.00
2022-08-03T18:36:22.060Z,100197.44
2022-08-03T18:38:56.919Z,100202.00
2022-08-03T18:41:33.178Z,100194.13
2022-08-03T18:44:08.590Z,100206.72
2022-08-03T18:46:35.974Z,100203.75
2022-08-03T18:49:11.310Z,100203.66
2022-08-03T18:51:43.344Z,100206.31
2022-08-03T18:54:57.807Z,100206.41
2022-08-03T18:56:59.477Z,100208.75
2022-08-03T18:59:30.155Z,100208.25
2022-08-03T19:01:56.917Z,100211.09
2022-08-03T19:04:25.416Z,100216.69
2022-08-03T19:06:52.678Z,100219.28
2022-08-03T19:09:20.187Z,100217.13
2022-08-03T19:12:14.122Z,100224.81
2022-08-03T19:14:32.535Z,100220.97
2022-08-03T19:16:58.772Z,100227.06
2022-08-03T19:19:25.015Z,100221.19
2022-08-03T19:21:51.246Z,100230.59
2022-08-03T19:24:17.407Z,100228.88
2022-08-03T19:26:48.541Z,100234.69
2022-08-03T19:29:18.431Z,100241.59
2022-08-03T19:31:58.914Z,100243.75
2022-08-03T19:37:22.020Z,100246.31
2022-08-03T19:39:56.628Z,100242.88
2022-08-03T19:42:26.844Z,100245.47
2022-08-03T19:45:17.805Z,100238.56
2022-08-03T19:47:44.045Z,100248.16
2022-08-03T19:50:14.333Z,100244.66
2022-08-03T19:55:37.741Z,100241.78
2022-08-03T19:58:08.686Z,100243.34
2022-08-03T20:17:03.224Z,100240.81
2022-08-03T20:19:36.517Z,100237.66
2022-08-03T20:22:02.816Z,100239.06
2022-08-03T20:27:15.240Z,100242.00
2022-08-03T20:32:40.770Z,100245.63
2022-08-03T20:35:11.808Z,100252.69
2022-08-03T20:37:38.160Z,100247.22
2022-08-03T20:40:04.405Z,100245.06
2022-08-03T20:42:30.684Z,100249.22
2022-08-03T20:45:06.132Z,100251.09
2022-08-03T20:47:50.329Z,100249.81
2022-08-03T20:50:19.779Z,100248.16
2022-08-03T20:52:57.177Z,100251.00
2022-08-03T20:55:47.667Z,100248.50
2022-08-03T20:58:11.763Z,100246.50
2022-08-03T21:00:42.914Z,100249.72
2022-08-03T21:03:09.478Z,100242.91
2022-08-03T21:05:48.364Z,100240.56
2022-08-03T21:08:18.219Z,100237.59
2022-08-03T21:10:44.461Z,100234.25
2022-08-03T21:13:04.224Z,100205.00
2022-08-03T21:16:11.389Z,100231.59
2022-08-03T21:18:31.924Z,100231.41
2022-08-03T21:20:58.185Z,100229.44
2022-08-03T21:23:39.834Z,100231.78
2022-08-03T21:26:11.172Z,100232.13
2022-08-03T21:28:39.879Z,100226.13
2022-08-03T21:31:06.133Z,100232.97
2022-08-03T21:33:32.339Z,100231.16
2022-08-03T21:35:59.749Z,100228.63
2022-08-03T21:38:30.253Z,100229.16
2022-08-03T21:40:57.983Z,100227.50
2022-08-03T21:43:24.214Z,100234.50
2022-08-03T21:45:54.820Z,100228.66
2022-08-03T21:48:23.529Z,100226.50
2022-08-03T21:50:50.683Z,100223.63
2022-08-03T21:53:17.035Z,100225.63
2022-08-03T21:55:45.373Z,100236.47
2022-08-03T21:58:11.616Z,100235.44
2022-08-03T22:00:37.847Z,100235.44
2022-08-03T22:03:11.991Z,100230.28
2022-08-03T22:05:44.286Z,100231.94
2022-08-03T22:08:10.549Z,100228.75
2022-08-03T22:10:36.915Z,100232.94
2022-08-03T22:13:03.100Z,100233.25
2022-08-03T22:15:29.293Z,100235.72
2022-08-03T22:17:57.221Z,100240.19
2022-08-03T22:20:23.689Z,100238.53
2022-08-03T22:22:55.261Z,100237.13
2022-08-03T22:25:21.843Z,100242.44
2022-08-03T22:27:48.220Z,100243.09
2022-08-03T22:30:14.406Z,100236.22
2022-08-03T22:32:40.573Z,100230.69
2022-08-03T22:35:06.743Z,100231.53
2022-08-03T22:37:35.814Z,100236.97
2022-08-03T22:40:01.972Z,100234.63
2022-08-03T22:42:28.190Z,100239.75
2022-08-03T22:44:54.370Z,100236.88
2022-08-03T22:47:22.861Z,100247.22
2022-08-03T22:49:49.361Z,100243.22
2022-08-03T22:52:35.538Z,100249.31
2022-08-03T22:55:01.746Z,100253.78
2022-08-03T22:57:27.948Z,100247.34
2022-08-03T22:59:54.135Z,100249.66
2022-08-03T23:02:21.759Z,100254.91
2022-08-03T23:04:48.033Z,100253.94
2022-08-03T23:07:14.219Z,100250.06
2022-08-03T23:09:40.412Z,100263.81
2022-08-03T23:12:06.584Z,100271.19
2022-08-03T23:14:32.748Z,100264.34
2022-08-03T23:16:58.931Z,100268.25
2022-08-03T23:19:26.105Z,100267.03
2022-08-03T23:22:00.611Z,100263.97
2022-08-03T23:24:30.347Z,100263.00
2022-08-03T23:26:56.664Z,100261.63
2022-08-03T23:29:23.041Z,100256.00
2022-08-03T23:31:49.227Z,100255.41
2022-08-03T23:34:16.762Z,100251.75
2022-08-03T23:36:43.101Z,100255.78
2022-08-03T23:39:09.424Z,100252.28
2022-08-03T23:41:35.613Z,100245.00
2022-08-03T23:44:01.870Z,100247.13
2022-08-03T23:46:29.880Z,100248.78
2022-08-03T23:48:56.485Z,100249.78
2022-08-03T23:51:22.917Z,100251.91
2022-08-03T23:53:49.075Z,100241.13
2022-08-03T23:56:15.457Z,100247.44
2022-08-03T23:58:41.613Z,100234.66
